Time;durP1;ratioP1;P1;durP2;ratioP2;P2;SDS_P1;SDS_P2;PMS_P1;PMS_P2;Temp;Humidity;BMP_temperature;BMP_pressure;BME280_temperature;BME280_humidity;BME280_pressure;Samples;Min_cycle;Max_cycle;Signal;HPM_P1;HPM_P2
2022/09/03 05:14:45;;;;;;;2.83;2.73;;;16.90;99.90;;;;;;5057851;22;20586;-82
2022/09/03 05:17:12;;;;;;;4.27;3.87;;;16.90;99.90;;;;;;5036910;28;20448;-82
2022/09/03 05:19:38;;;;;;;3.50;3.20;;;16.90;99.90;;;;;;5037119;28;20809;-82
2022/09/03 05:22:06;;;;;;;3.27;2.97;;;17.00;99.90;;;;;;5037317;28;20449;-82
2022/09/03 05:24:33;;;;;;;3.60;3.37;;;17.10;99.90;;;;;;5038157;28;20492;-81
2022/09/03 05:27:01;;;;;;;3.00;2.80;;;17.10;99.90;;;;;;5043901;28;20494;-80
2022/09/03 05:29:27;;;;;;;3.03;2.83;;;17.10;99.90;;;;;;5044352;28;20456;-81
2022/09/03 05:31:55;;;;;;;3.07;2.87;;;17.20;99.90;;;;;;5044862;28;20455;-81
2022/09/03 05:34:22;;;;;;;3.83;3.60;;;17.30;99.90;;;;;;5044412;28;20475;-81
2022/09/03 05:36:49;;;;;;;4.50;4.07;;;17.30;99.90;;;;;;5044994;28;20515;-81
2022/09/03 05:39:16;;;;;;;3.63;3.33;;;17.30;99.90;;;;;;5044222;28;20947;-80
2022/09/03 05:41:42;;;;;;;4.20;3.90;;;17.30;99.90;;;;;;5044672;28;20450;-80
2022/09/03 05:44:09;;;;;;;4.00;3.70;;;17.30;99.90;;;;;;5044391;28;20460;-81
2022/09/03 05:46:37;;;;;;;3.67;3.43;;;17.30;99.90;;;;;;5044010;28;20487;-80
2022/09/03 05:49:06;;;;;;;6.93;4.60;;;17.30;99.90;;;;;;5043812;28;20459;-81
2022/09/03 06:12:29;;;;;;;5.63;4.30;;;17.70;99.90;;;;;;5039789;28;20501;-82
2022/09/03 06:21:46;;;;;;;3.77;3.47;;;17.90;99.90;;;;;;5041461;28;20501;-81
2022/09/03 06:24:17;;;;;;;3.97;3.67;;;18.00;99.90;;;;;;5043380;28;20475;-80
2022/09/03 06:26:45;;;;;;;3.93;3.63;;;18.10;99.90;;;;;;5043466;28;20489;-81
2022/09/03 06:29:13;;;;;;;4.60;4.10;;;18.10;99.90;;;;;;5042877;28;20890;-81
2022/09/03 06:31:40;;;;;;;3.63;3.43;;;18.20;99.90;;;;;;5043156;28;20449;-81
2022/09/03 06:34:07;;;;;;;5.03;4.53;;;18.30;99.90;;;;;;5040694;28;20941;-83
2022/09/03 06:36:33;;;;;;;4.70;4.30;;;18.40;99.90;;;;;;5036306;28;20448;-81
2022/09/03 06:39:02;;;;;;;4.27;3.87;;;18.40;99.90;;;;;;5035775;28;20457;-82
2022/09/03 06:41:31;;;;;;;7.60;3.97;;;18.50;99.90;;;;;;5035773;28;20450;-82
2022/09/03 06:44:01;;;;;;;4.20;3.50;;;18.50;99.90;;;;;;5036120;28;20868;-82
2022/09/03 06:46:27;;;;;;;6.83;4.07;;;18.60;99.90;;;;;;5036095;28;20578;-82
2022/09/03 06:48:54;;;;;;;4.00;3.80;;;18.60;99.90;;;;;;5035478;28;20456;-82
2022/09/03 06:51:23;;;;;;;4.40;4.00;;;18.70;99.90;;;;;;5035952;28;20482;-82
2022/09/03 06:53:51;;;;;;;4.70;4.40;;;18.80;99.90;;;;;;5036417;28;20455;-82
2022/09/03 06:56:25;;;;;;;4.93;4.60;;;18.90;99.90;;;;;;5036113;28;20445;-82
2022/09/03 06:58:54;;;;;;;5.20;4.70;;;18.90;99.90;;;;;;5035656;28;20552;-82
2022/09/03 07:01:22;;;;;;;3.93;3.73;;;19.00;99.90;;;;;;5035821;28;20449;-82
2022/09/03 07:03:55;;;;;;;4.27;3.97;;;19.10;99.90;;;;;;5036205;28;20457;-82
2022/09/03 07:06:23;;;;;;;4.20;3.93;;;19.20;99.90;;;;;;5035983;28;20476;-83
2022/09/03 07:08:50;;;;;;;3.40;3.20;;;19.30;99.90;;;;;;5035673;28;20479;-83
2022/09/03 07:11:22;;;;;;;4.90;4.37;;;19.40;99.90;;;;;;5036208;28;20457;-82
2022/09/03 07:13:50;;;;;;;5.40;4.40;;;19.50;99.90;;;;;;5035824;28;20480;-83
2022/09/03 07:16:18;;;;;;;4.73;4.30;;;19.60;99.90;;;;;;5035362;28;20548;-82
2022/09/03 07:18:46;;;;;;;5.43;4.30;;;19.70;99.90;;;;;;5038637;28;20946;-81
2022/09/03 07:21:14;;;;;;;6.63;3.67;;;19.80;99.90;;;;;;5039635;28;20542;-82
2022/09/03 07:23:41;;;;;;;3.93;3.70;;;19.80;99.90;;;;;;5039494;28;20456;-82
2022/09/03 07:26:11;;;;;;;3.30;3.10;;;19.80;99.90;;;;;;5039090;28;21012;-83
2022/09/03 07:28:41;;;;;;;4.87;4.47;;;19.80;99.90;;;;;;5039387;28;20460;-83
2022/09/03 07:31:10;;;;;;;4.13;3.83;;;19.90;99.90;;;;;;5046966;28;20460;-81
2022/09/03 07:33:37;;;;;;;4.27;3.87;;;19.90;99.90;;;;;;5047607;28;20446;-82
2022/09/03 07:36:06;;;;;;;4.00;3.50;;;19.90;99.90;;;;;;5047605;28;20460;-80
2022/09/03 07:38:33;;;;;;;4.67;4.37;;;19.90;99.90;;;;;;5047168;28;20791;-81
2022/09/03 07:41:01;;;;;;;3.93;3.73;;;19.90;99.90;;;;;;5041902;28;20445;-80
2022/09/03 07:43:28;;;;;;;4.87;4.47;;;19.90;99.90;;;;;;5039366;28;20453;-82
2022/09/03 07:45:56;;;;;;;6.63;4.80;;;20.00;99.90;;;;;;5039263;28;20512;-82
2022/09/03 07:48:23;;;;;;;3.97;3.57;;;20.00;99.90;;;;;;5038590;28;20449;-82
2022/09/03 07:50:50;;;;;;;4.43;3.90;;;20.10;99.90;;;;;;5039312;28;20456;-82
2022/09/03 07:53:19;;;;;;;4.93;4.53;;;20.20;99.90;;;;;;5038854;28;20540;-82
2022/09/03 07:55:46;;;;;;;3.77;3.47;;;20.40;99.90;;;;;;5038808;28;20993;-82
2022/09/03 07:58:14;;;;;;;4.60;4.30;;;20.50;99.90;;;;;;5039302;28;20455;-82
2022/09/03 08:00:41;;;;;;;4.30;4.00;;;20.60;99.90;;;;;;5039569;28;20807;-82
2022/09/03 08:03:09;;;;;;;4.33;4.00;;;20.80;99.90;;;;;;5039104;28;20455;-82
2022/09/03 08:05:37;;;;;;;4.17;3.87;;;21.00;99.90;;;;;;5039027;28;20479;-81
2022/09/03 08:08:04;;;;;;;4.83;4.47;;;21.20;99.90;;;;;;5038427;28;20447;-82
2022/09/03 08:10:31;;;;;;;4.30;4.00;;;21.40;99.90;;;;;;5038820;28;20461;-82
2022/09/03 08:12:58;;;;;;;4.47;4.17;;;21.50;99.80;;;;;;5038783;28;20453;-82
2022/09/03 08:15:25;;;;;;;4.63;3.80;;;21.70;99.70;;;;;;5038784;28;20527;-82
2022/09/03 08:17:52;;;;;;;5.13;4.73;;;21.90;99.20;;;;;;5038501;28;20452;-82
2022/09/03 08:20:21;;;;;;;5.10;4.70;;;22.10;98.30;;;;;;5038982;28;20840;-82
2022/09/03 08:22:48;;;;;;;7.20;4.90;;;22.20;98.30;;;;;;5038966;28;20457;-83
2022/09/03 08:25:15;;;;;;;4.77;4.37;;;22.20;98.00;;;;;;5038244;28;20473;-81
2022/09/03 08:27:42;;;;;;;4.60;4.23;;;22.30;97.90;;;;;;5038127;28;20492;-83
2022/09/03 08:30:10;;;;;;;4.63;4.33;;;22.40;98.00;;;;;;5039007;28;20459;-82
2022/09/03 08:32:38;;;;;;;6.57;4.70;;;22.50;98.10;;;;;;5039329;28;20456;-82
2022/09/03 08:35:06;;;;;;;4.63;4.23;;;22.50;97.90;;;;;;5037824;28;20469;-83
2022/09/03 08:37:34;;;;;;;4.30;4.00;;;22.60;98.20;;;;;;5038920;28;20453;-83
2022/09/03 08:40:02;;;;;;;4.80;3.80;;;22.60;98.40;;;;;;5038910;28;20837;-83
2022/09/03 08:42:39;;;;;;;4.87;4.53;;;22.80;97.80;;;;;;5044427;28;20449;-81
2022/09/03 08:45:10;;;;;;;4.23;3.93;;;22.80;97.60;;;;;;5044823;28;20477;-81
2022/09/03 08:47:41;;;;;;;4.97;4.57;;;22.80;97.30;;;;;;5044725;28;20491;-81
2022/09/03 08:50:13;;;;;;;5.00;4.60;;;22.70;97.80;;;;;;5045941;28;20463;-81
2022/09/03 08:52:48;;;;;;;4.57;4.27;;;22.60;97.80;;;;;;5047602;28;20457;-81
2022/09/03 08:55:21;;;;;;;3.40;3.20;;;22.70;97.90;;;;;;5046722;28;20467;-81
2022/09/03 08:57:50;;;;;;;4.37;4.07;;;22.90;97.60;;;;;;5045738;28;20446;-80
2022/09/03 09:00:18;;;;;;;7.30;4.53;;;23.10;97.80;;;;;;5046500;28;20449;-81
2022/09/03 09:03:00;;;;;;;4.50;4.20;;;23.30;98.10;;;;;;5045766;28;20449;-81
2022/09/03 09:05:39;;;;;;;3.97;3.77;;;23.60;98.10;;;;;;5045302;28;20473;-81
2022/09/03 09:08:18;;;;;;;3.70;3.50;;;23.70;97.20;;;;;;5044115;28;20494;-81
2022/09/03 09:10:48;;;;;;;3.60;3.40;;;23.90;96.90;;;;;;5045393;28;20457;-81
2022/09/03 09:13:24;;;;;;;3.90;3.70;;;24.10;96.80;;;;;;5045655;28;20445;-81
2022/09/03 09:15:59;;;;;;;4.40;4.00;;;24.20;95.80;;;;;;5046860;28;20994;-81
2022/09/03 09:18:36;;;;;;;4.03;3.83;;;24.20;95.30;;;;;;5045945;28;20492;-81
2022/09/03 09:21:11;;;;;;;4.73;4.43;;;24.20;95.30;;;;;;5045632;28;20466;-81
2022/09/03 09:23:42;;;;;;;4.90;4.17;;;24.20;95.20;;;;;;5046222;28;20441;-81
2022/09/03 09:26:13;;;;;;;5.93;4.23;;;24.20;95.70;;;;;;5045699;28;20469;-81
2022/09/03 09:28:41;;;;;;;4.90;4.50;;;24.20;96.00;;;;;;5045994;28;20476;-81
2022/09/03 09:31:14;;;;;;;4.60;4.20;;;24.20;96.40;;;;;;5045597;28;20469;-82
2022/09/03 09:33:41;;;;;;;3.90;3.67;;;24.30;95.90;;;;;;5045704;28;20463;-81
2022/09/03 09:36:12;;;;;;;4.37;4.07;;;24.50;96.10;;;;;;5045866;28;20485;-81
2022/09/03 09:38:40;;;;;;;4.73;4.43;;;24.70;96.30;;;;;;5045766;28;20460;-81
2022/09/03 09:41:12;;;;;;;5.17;4.77;;;24.90;94.60;;;;;;5045089;28;20458;-82
2022/09/03 09:43:38;;;;;;;4.63;4.30;;;25.00;93.80;;;;;;5045210;28;20458;-82
2022/09/03 09:46:13;;;;;;;4.40;4.20;;;24.80;93.60;;;;;;5045096;28;20463;-82
2022/09/03 09:48:47;;;;;;;4.70;4.40;;;24.90;93.50;;;;;;5045601;28;20463;-81
2022/09/03 09:51:20;;;;;;;4.20;3.90;;;24.80;92.90;;;;;;5045448;28;20456;-81
2022/09/03 09:53:59;;;;;;;4.50;4.20;;;24.80;93.20;;;;;;5045548;28;20447;-82
2022/09/03 09:56:27;;;;;;;4.30;4.03;;;24.80;93.00;;;;;;5045600;28;20482;-81
2022/09/03 09:59:03;;;;;;;4.60;3.97;;;24.80;93.60;;;;;;5045759;28;20450;-80
2022/09/03 10:01:30;;;;;;;4.30;4.10;;;24.80;93.10;;;;;;5045533;28;20458;-82
2022/09/03 10:03:59;;;;;;;4.50;4.20;;;24.90;92.50;;;;;;5045448;28;20898;-81
2022/09/03 10:09:23;;;;;;;4.87;4.57;;;24.80;93.00;;;;;;5029279;28;20442;-81
2022/09/03 10:11:57;;;;;;;5.40;5.00;;;24.80;92.80;;;;;;5044767;28;20445;-81
2022/09/03 10:14:32;;;;;;;4.60;4.30;;;24.60;92.70;;;;;;5043382;28;20481;-81
2022/09/03 10:17:06;;;;;;;5.00;4.60;;;24.60;92.60;;;;;;5044408;28;20454;-81
2022/09/03 10:20:25;;;;;;;5.50;5.10;;;24.40;92.60;;;;;;5042870;28;20839;-81
2022/09/03 10:22:45;;;;;;;5.27;4.87;;;24.40;93.00;;;;;;5043229;28;20874;-81
2022/09/03 10:25:15;;;;;;;5.70;5.40;;;24.30;92.80;;;;;;5044010;28;20488;-82
2022/09/03 10:27:43;;;;;;;4.87;4.57;;;24.10;93.00;;;;;;5043125;28;20485;-81
2022/09/03 10:30:12;;;;;;;4.70;4.30;;;24.10;93.20;;;;;;5044305;28;20461;-82
2022/09/03 10:32:45;;;;;;;5.30;4.90;;;24.10;93.10;;;;;;5043870;28;20458;-81
2022/09/03 10:35:21;;;;;;;5.40;5.00;;;24.10;93.20;;;;;;5043276;28;20489;-81
2022/09/03 10:37:54;;;;;;;4.40;4.10;;;24.50;93.40;;;;;;5043270;28;20450;-82
2022/09/03 10:40:30;;;;;;;4.43;4.03;;;24.80;92.80;;;;;;5043493;28;20455;-82
2022/09/03 10:43:28;;;;;;;5.70;5.17;;;25.10;92.40;;;;;;5043706;28;20457;-82
2022/09/03 10:46:01;;;;;;;4.53;4.33;;;25.20;91.00;;;;;;5038031;28;20468;-82
2022/09/03 10:48:57;;;;;;;5.07;4.67;;;25.30;91.40;;;;;;5043066;28;20478;-82
2022/09/03 10:51:26;;;;;;;5.53;5.03;;;25.40;91.10;;;;;;5043293;28;20460;-82
2022/09/03 10:54:23;;;;;;;4.90;4.50;;;25.40;91.00;;;;;;5047308;28;20450;-82
2022/09/03 10:57:00;;;;;;;4.83;4.53;;;25.50;90.80;;;;;;5047846;28;20439;-82
2022/09/03 10:59:36;;;;;;;5.17;4.77;;;25.50;90.80;;;;;;5041634;28;20457;-84
2022/09/03 11:02:18;;;;;;;5.87;5.37;;;25.70;91.20;;;;;;5040353;28;20444;-83
2022/09/03 11:04:53;;;;;;;5.60;5.30;;;25.80;90.80;;;;;;5040348;28;20467;-83
2022/09/03 11:07:22;;;;;;;6.17;5.77;;;26.00;90.60;;;;;;5040573;28;20833;-83
2022/09/03 11:09:53;;;;;;;5.37;5.00;;;26.10;89.50;;;;;;5040563;28;20452;-83
2022/09/03 11:12:29;;;;;;;5.23;4.83;;;26.10;88.70;;;;;;5040423;28;20910;-84
2022/09/03 11:15:02;;;;;;;5.97;5.47;;;26.20;90.10;;;;;;5040623;28;20533;-83
2022/09/03 11:17:34;;;;;;;5.63;5.23;;;26.20;89.90;;;;;;5039994;28;20457;-83
2022/09/03 11:20:12;;;;;;;8.83;5.10;;;26.20;88.70;;;;;;5039671;28;20488;-83
2022/09/03 11:22:42;;;;;;;5.43;5.10;;;25.90;87.30;;;;;;5040068;28;20458;-83
2022/09/03 11:25:12;;;;;;;4.87;4.57;;;25.90;89.10;;;;;;5040650;28;20848;-82
2022/09/03 11:27:56;;;;;;;4.83;4.53;;;25.90;89.50;;;;;;5039565;28;20487;-83
2022/09/03 11:30:27;;;;;;;5.53;5.13;;;25.80;90.20;;;;;;5039941;28;20457;-83
2022/09/03 11:32:56;;;;;;;5.13;4.77;;;25.70;90.20;;;;;;5039941;28;20470;-84
2022/09/03 11:35:28;;;;;;;5.60;5.20;;;25.70;90.40;;;;;;5041522;28;20469;-82
2022/09/03 11:37:59;;;;;;;6.70;6.07;;;25.60;90.60;;;;;;5047758;28;20452;-82
2022/09/03 11:40:32;;;;;;;5.23;4.93;;;25.50;90.50;;;;;;5049139;28;20450;-82
2022/09/03 11:43:11;;;;;;;5.70;5.30;;;25.50;90.70;;;;;;5048723;28;20815;-82
2022/09/03 11:45:39;;;;;;;5.20;4.80;;;25.40;90.90;;;;;;5048257;28;20501;-82
2022/09/03 11:48:30;;;;;;;5.47;4.97;;;25.30;91.20;;;;;;5048498;28;20485;-82
2022/09/03 11:50:57;;;;;;;5.87;4.37;;;25.10;91.50;;;;;;5045399;28;20453;-83
2022/09/03 11:53:28;;;;;;;5.90;5.07;;;25.00;92.10;;;;;;5039579;28;20448;-83
2022/09/03 11:55:59;;;;;;;5.90;5.40;;;24.90;93.00;;;;;;5039542;28;20515;-83
2022/09/03 11:58:31;;;;;;;5.50;5.20;;;24.70;94.00;;;;;;5039331;28;20453;-83
2022/09/03 12:01:00;;;;;;;6.73;6.23;;;24.60;94.70;;;;;;5039014;28;20533;-83
2022/09/03 12:03:30;;;;;;;6.27;5.67;;;24.20;95.30;;;;;;5038856;28;20507;-83
2022/09/03 12:06:37;;;;;;;6.50;5.97;;;24.00;96.20;;;;;;5039419;28;20469;-83
2022/09/03 12:09:33;;;;;;;7.20;6.60;;;23.70;96.80;;;;;;5025432;28;20489;-85
2022/09/03 12:12:12;;;;;;;6.77;6.17;;;23.40;98.70;;;;;;5041086;28;20475;-85
2022/09/03 12:14:50;;;;;;;6.97;6.40;;;23.20;99.90;;;;;;5040117;28;20476;-86
2022/09/03 12:17:30;;;;;;;9.43;7.20;;;23.00;99.90;;;;;;5041359;28;20463;-82
2022/09/03 12:19:58;;;;;;;4.40;4.17;;;22.70;99.90;;;;;;5040110;28;20463;-84
2022/09/03 12:22:27;;;;;;;3.73;3.20;;;22.00;99.90;;;;;;5040942;28;20477;-84
2022/09/03 12:24:55;;;;;;;3.17;2.87;;;21.50;99.90;;;;;;5041186;28;20475;-84
2022/09/03 12:27:24;;;;;;;3.30;3.00;;;20.90;99.90;;;;;;5041331;28;20995;-84
2022/09/03 12:29:59;;;;;;;2.00;1.67;;;20.30;99.90;;;;;;5041529;28;20553;-84
2022/09/03 12:32:30;;;;;;;2.63;2.43;;;19.90;99.90;;;;;;5042192;28;20506;-83
2022/09/03 12:34:58;;;;;;;4.43;3.00;;;19.50;99.90;;;;;;5042089;28;20567;-83
2022/09/03 12:37:26;;;;;;;2.90;2.70;;;19.20;99.90;;;;;;5042165;28;20445;-83
2022/09/03 12:39:55;;;;;;;2.77;2.57;;;18.90;99.90;;;;;;5041235;28;20462;-83
2022/09/03 12:42:27;;;;;;;2.57;2.37;;;18.60;99.90;;;;;;5040550;28;20460;-83
2022/09/03 12:44:55;;;;;;;3.43;3.07;;;18.40;99.90;;;;;;5040890;28;20483;-83
2022/09/03 12:47:24;;;;;;;4.20;3.50;;;18.40;99.90;;;;;;5043671;28;20477;-85
2022/09/03 12:49:57;;;;;;;3.70;3.23;;;18.40;99.90;;;;;;5042329;28;20448;-85
2022/09/03 13:19:55;;;;;;;4.80;2.87;;;17.90;99.90;;;;;;5045529;28;20419;-85
2022/09/03 13:26:23;;;;;;;2.13;1.70;;;18.30;99.90;;;;;;4978847;28;20455;-86
2022/09/03 13:29:25;;;;;;;2.67;2.40;;;18.40;99.90;;;;;;4977056;28;21078;-85
2022/09/03 14:14:40;;;;;;;1.60;1.50;;;23.80;99.90;;;;;;5086975;28;20487;-84
2022/09/03 14:17:13;;;;;;;2.67;2.10;;;24.50;99.90;;;;;;5087580;28;20454;-83
2022/09/03 14:19:46;;;;;;;2.10;1.60;;;25.00;99.90;;;;;;5083920;28;20450;-83
2022/09/03 14:22:17;;;;;;;1.73;1.63;;;25.30;99.90;;;;;;5084102;28;20454;-83
2022/09/03 14:24:49;;;;;;;1.20;1.10;;;25.70;99.90;;;;;;5082513;28;20484;-83
2022/09/03 14:27:24;;;;;;;1.50;1.40;;;26.00;99.90;;;;;;5086473;28;20509;-83
2022/09/03 14:29:57;;;;;;;2.40;1.37;;;26.10;99.60;;;;;;5086643;28;20447;-84
2022/09/03 14:32:30;;;;;;;1.53;1.43;;;26.40;99.90;;;;;;5086360;28;20451;-84
2022/09/03 14:35:16;;;;;;;1.57;1.47;;;26.90;99.90;;;;;;5083764;28;20475;-84
2022/09/03 14:38:03;;;;;;;1.30;1.20;;;27.00;97.60;;;;;;5083178;28;20451;-85
2022/09/03 14:40:34;;;;;;;1.40;1.13;;;26.90;97.10;;;;;;5078826;28;20458;-83
2022/09/03 14:43:29;;;;;;;1.93;1.83;;;26.60;96.10;;;;;;5079797;28;20447;-84
2022/09/03 14:46:18;;;;;;;2.80;2.60;;;26.20;96.20;;;;;;5078585;28;20476;-83
2022/09/03 14:49:07;;;;;;;1.50;1.40;;;25.80;98.10;;;;;;5078680;28;20493;-83
2022/09/03 14:51:51;;;;;;;1.97;1.60;;;25.70;98.70;;;;;;5079292;28;20461;-83
2022/09/03 14:54:37;;;;;;;4.00;1.40;;;25.90;99.50;;;;;;5079622;28;20476;-84
2022/09/03 14:57:20;;;;;;;1.30;1.20;;;26.20;99.90;;;;;;5079150;28;20468;-84
2022/09/03 15:00:03;;;;;;;1.37;1.20;;;26.70;99.40;;;;;;5078368;28;20475;-83
2022/09/03 15:03:02;;;;;;;1.23;1.20;;;27.40;99.90;;;;;;5077760;28;20494;-83
2022/09/03 15:05:42;;;;;;;1.70;1.20;;;28.20;99.90;;;;;;5077620;28;20480;-82
2022/09/03 15:08:14;;;;;;;1.07;1.07;;;29.10;97.30;;;;;;5077231;28;20496;-84
2022/09/03 15:10:46;;;;;;;1.47;1.30;;;29.60;94.90;;;;;;5078698;28;20447;-84
2022/09/03 15:13:17;;;;;;;2.13;1.20;;;29.60;92.50;;;;;;5078393;28;20458;-83
2022/09/03 15:16:04;;;;;;;1.50;1.40;;;29.40;93.10;;;;;;5077466;28;20780;-82
2022/09/03 15:18:49;;;;;;;1.30;1.03;;;29.40;92.50;;;;;;5077694;28;20886;-83
2022/09/03 15:21:24;;;;;;;1.50;1.40;;;29.30;92.90;;;;;;5077715;28;20811;-83
2022/09/03 15:24:02;;;;;;;1.57;1.47;;;29.10;91.60;;;;;;5077076;28;20451;-84
2022/09/03 15:26:45;;;;;;;1.73;1.63;;;28.80;91.70;;;;;;5077196;28;20791;-83
2022/09/03 15:29:33;;;;;;;1.87;1.67;;;28.20;90.80;;;;;;5077450;28;20497;-82
2022/09/03 15:32:09;;;;;;;1.93;1.83;;;27.60;92.20;;;;;;5077859;28;20454;-83
2022/09/03 15:34:52;;;;;;;2.40;2.30;;;27.00;93.40;;;;;;5081808;28;20495;-82
2022/09/03 15:37:25;;;;;;;2.30;2.10;;;26.60;93.90;;;;;;5086817;28;20444;-80
2022/09/03 15:40:02;;;;;;;1.83;1.73;;;26.30;94.70;;;;;;5084522;28;20466;-85
2022/09/03 15:42:30;;;;;;;2.33;2.13;;;26.10;95.50;;;;;;5089756;28;20458;-83
2022/09/03 15:45:04;;;;;;;1.57;1.47;;;26.10;95.20;;;;;;5080959;28;20471;-83
2022/09/03 15:47:43;;;;;;;1.40;1.30;;;26.40;95.90;;;;;;5080517;28;20447;-83
2022/09/03 15:50:24;;;;;;;1.97;1.70;;;26.70;95.60;;;;;;5081210;28;20443;-81
2022/09/03 15:52:59;;;;;;;1.40;1.40;;;27.20;94.60;;;;;;5081434;28;20452;-81
2022/09/03 15:55:33;;;;;;;2.47;2.27;;;26.90;92.90;;;;;;5084712;28;20465;-82
2022/09/03 15:58:09;;;;;;;2.30;2.17;;;26.90;93.90;;;;;;5079944;28;20456;-82
2022/09/03 16:00:51;;;;;;;2.00;1.90;;;26.90;94.20;;;;;;5080570;28;20462;-84
2022/09/03 16:03:30;;;;;;;2.17;1.80;;;26.90;94.10;;;;;;5080258;28;20448;-82
2022/09/03 16:06:03;;;;;;;1.87;1.77;;;26.80;94.10;;;;;;5079757;28;20473;-82
2022/09/03 16:08:41;;;;;;;2.40;2.20;;;26.90;94.70;;;;;;5079631;28;20487;-81
2022/09/03 16:11:15;;;;;;;3.10;2.77;;;26.80;94.30;;;;;;5079411;28;20461;-83
2022/09/03 16:13:59;;;;;;;1.77;1.67;;;26.50;94.80;;;;;;5079710;28;20458;-82
2022/09/03 16:16:30;;;;;;;2.67;2.47;;;26.10;95.10;;;;;;5079745;28;20960;-81
2022/09/03 16:19:05;;;;;;;3.47;3.10;;;25.90;95.80;;;;;;5078934;28;20935;-81
2022/09/03 16:21:38;;;;;;;3.00;2.80;;;25.60;96.20;;;;;;5079161;28;20452;-81
2022/09/03 16:24:16;;;;;;;2.37;2.27;;;25.30;96.90;;;;;;5079468;28;20452;-81
2022/09/03 16:26:51;;;;;;;1.80;1.70;;;24.90;97.60;;;;;;5079209;28;20456;-81
2022/09/03 16:29:26;;;;;;;2.70;1.97;;;24.70;98.40;;;;;;5079114;28;20559;-82
2022/09/03 16:32:07;;;;;;;1.73;1.63;;;24.40;98.70;;;;;;5079244;28;20459;-83
2022/09/03 16:34:44;;;;;;;2.13;1.90;;;24.20;99.20;;;;;;5078943;28;20836;-80
2022/09/03 16:37:23;;;;;;;3.67;2.10;;;24.10;99.60;;;;;;5078586;28;20963;-81
2022/09/03 16:39:57;;;;;;;1.57;1.47;;;23.90;99.80;;;;;;5083979;28;20508;-82
2022/09/03 16:42:31;;;;;;;2.00;1.80;;;23.70;99.90;;;;;;5079152;28;20412;-81
2022/09/03 16:45:10;;;;;;;3.17;1.97;;;23.60;99.90;;;;;;5078781;28;20479;-82
2022/09/03 16:47:49;;;;;;;2.00;1.90;;;23.50;99.90;;;;;;5078258;28;20471;-82
2022/09/03 16:50:27;;;;;;;2.30;1.80;;;23.30;99.90;;;;;;5078399;28;20487;-81
2022/09/03 16:53:06;;;;;;;3.40;1.83;;;23.20;99.90;;;;;;5078250;28;20475;-80
2022/09/03 16:55:57;;;;;;;1.63;1.53;;;23.20;99.90;;;;;;5078483;28;20477;-82
2022/09/03 16:58:34;;;;;;;1.50;1.40;;;23.20;99.90;;;;;;5078203;28;20444;-81
2022/09/03 17:01:13;;;;;;;2.70;2.50;;;23.20;99.90;;;;;;5079249;28;20478;-81
2022/09/03 17:04:03;;;;;;;2.30;2.17;;;23.30;99.90;;;;;;5079086;28;20439;-81
2022/09/03 17:06:44;;;;;;;2.60;2.10;;;23.60;99.90;;;;;;5079163;28;20460;-82
2022/09/03 17:09:25;;;;;;;2.30;1.87;;;24.00;99.90;;;;;;5077977;28;20510;-81
2022/09/03 17:12:03;;;;;;;2.30;2.10;;;24.40;99.90;;;;;;5078429;28;20458;-82
2022/09/03 17:15:01;;;;;;;2.13;2.03;;;24.90;99.90;;;;;;5078297;28;20859;-81
2022/09/03 17:17:51;;;;;;;2.07;1.97;;;25.20;98.40;;;;;;5078032;28;20456;-82
2022/09/03 17:20:38;;;;;;;1.90;1.80;;;25.50;98.20;;;;;;5078931;28;20453;-82
2022/09/03 17:23:29;;;;;;;1.47;1.37;;;25.60;98.50;;;;;;5078536;28;20461;-82
2022/09/03 17:26:07;;;;;;;2.17;2.07;;;25.70;98.30;;;;;;5079134;28;20489;-81
2022/09/03 17:28:49;;;;;;;1.90;1.80;;;26.00;97.60;;;;;;5078349;28;20512;-81
2022/09/03 17:31:23;;;;;;;1.53;1.43;;;26.30;97.00;;;;;;5078223;28;20444;-81
2022/09/03 17:34:03;;;;;;;4.47;1.93;;;26.50;96.50;;;;;;5078573;28;20883;-82
2022/09/03 17:36:32;;;;;;;1.73;1.63;;;26.50;96.10;;;;;;5083358;28;20669;-81
2022/09/03 17:39:37;;;;;;;1.73;1.63;;;26.40;95.80;;;;;;5077893;28;20559;-82
2022/09/03 17:42:16;;;;;;;2.63;2.13;;;26.10;96.20;;;;;;5077721;28;20466;-82
2022/09/03 17:44:54;;;;;;;2.67;2.47;;;25.70;96.80;;;;;;5078955;28;20466;-81
2022/09/03 17:47:56;;;;;;;2.30;2.10;;;25.40;97.40;;;;;;5078122;28;20460;-85
2022/09/03 17:50:26;;;;;;;3.37;2.30;;;24.90;98.10;;;;;;5018593;28;20475;-83
2022/09/03 17:52:56;;;;;;;3.40;1.90;;;24.60;98.90;;;;;;5079106;28;20907;-81
2022/09/03 17:55:30;;;;;;;2.63;2.43;;;24.30;99.60;;;;;;5071499;28;20464;-80
2022/09/03 17:58:11;;;;;;;3.00;2.80;;;23.90;99.90;;;;;;5057043;28;20539;-83
2022/09/03 18:00:44;;;;;;;3.50;3.20;;;23.50;99.90;;;;;;5057584;28;20449;-83
2022/09/03 18:03:18;;;;;;;2.63;2.43;;;23.30;99.90;;;;;;5056721;28;20444;-83
2022/09/03 18:05:48;;;;;;;2.63;2.43;;;23.00;99.90;;;;;;5067200;28;20832;-81
2022/09/03 18:08:21;;;;;;;3.40;3.10;;;22.70;99.90;;;;;;5076422;28;20537;-81
2022/09/03 18:11:01;;;;;;;3.00;2.80;;;22.60;99.90;;;;;;5077790;28;20461;-81
2022/09/03 18:13:43;;;;;;;3.50;2.97;;;22.30;99.90;;;;;;5071462;28;20470;-84
2022/09/03 18:16:14;;;;;;;4.10;3.17;;;22.10;99.90;;;;;;5060816;28;20474;-84
2022/09/03 18:18:46;;;;;;;3.63;3.43;;;21.90;99.90;;;;;;5077259;28;20457;-84
2022/09/03 20:10:43;;;;;;;6.80;5.97;;;18.50;99.90;;;;;;5065744;28;20498;-84
2022/09/03 20:13:13;;;;;;;7.30;6.70;;;18.50;99.90;;;;;;5060749;28;20470;-81
2022/09/03 20:15:49;;;;;;;6.43;5.93;;;18.40;99.90;;;;;;5059140;28;20475;-82
2022/09/03 20:18:26;;;;;;;6.67;6.17;;;18.40;99.90;;;;;;5058483;28;20436;-82
2022/09/03 20:21:02;;;;;;;7.17;6.53;;;18.30;99.90;;;;;;5058363;28;20462;-81
2022/09/03 20:23:35;;;;;;;6.30;5.80;;;18.30;99.90;;;;;;5057957;28;20436;-84
2022/09/03 20:26:17;;;;;;;6.37;5.80;;;18.30;99.90;;;;;;5067912;28;20445;-82
2022/09/03 20:29:09;;;;;;;6.63;6.13;;;18.20;99.90;;;;;;5058683;28;20455;-83
2022/09/03 20:31:45;;;;;;;5.27;4.87;;;18.20;99.90;;;;;;5051744;28;20459;-83
2022/09/03 20:34:25;;;;;;;6.10;5.57;;;18.20;99.90;;;;;;5068807;28;20450;-83
2022/09/03 20:36:57;;;;;;;6.37;4.93;;;18.20;99.90;;;;;;5066679;28;20438;-83
2022/09/03 20:39:44;;;;;;;5.67;5.17;;;18.10;99.90;;;;;;5074018;28;20456;-84
2022/09/03 20:42:27;;;;;;;6.20;5.70;;;18.10;99.90;;;;;;5068414;28;20451;-82
2022/09/03 20:45:04;;;;;;;5.80;5.20;;;18.10;99.90;;;;;;5061978;28;20502;-84
2022/09/03 20:47:58;;;;;;;5.87;5.30;;;18.00;99.90;;;;;;5078030;28;20430;-83
2022/09/03 20:50:43;;;;;;;5.70;5.13;;;18.00;99.90;;;;;;5075511;28;20569;-81
2022/09/03 20:53:39;;;;;;;5.40;4.90;;;18.00;99.90;;;;;;5059111;28;20931;-81
2022/09/03 20:56:12;;;;;;;6.07;5.57;;;18.00;99.90;;;;;;5057374;28;20471;-82
2022/09/03 20:58:47;;;;;;;9.63;6.43;;;18.00;99.90;;;;;;5057504;28;20898;-82
2022/09/03 21:01:22;;;;;;;5.33;4.93;;;18.00;99.90;;;;;;5057412;28;20431;-81
2022/09/03 21:03:56;;;;;;;7.20;6.20;;;18.00;99.90;;;;;;5058296;28;20439;-82
2022/09/03 21:06:33;;;;;;;6.23;5.70;;;18.00;99.90;;;;;;5075418;28;20454;-81
2022/09/03 21:09:19;;;;;;;4.93;4.47;;;18.10;99.90;;;;;;5057357;28;20545;-83
2022/09/03 21:11:52;;;;;;;4.67;4.27;;;18.10;99.90;;;;;;5067699;28;20448;-82
2022/09/03 21:14:30;;;;;;;5.63;4.37;;;18.20;99.90;;;;;;5059239;28;20511;-81
2022/09/03 21:17:08;;;;;;;4.13;3.83;;;18.20;99.90;;;;;;5077806;28;20432;-83
2022/09/03 21:19:47;;;;;;;5.90;5.40;;;18.20;99.90;;;;;;5078271;28;20434;-85
2022/09/03 21:22:27;;;;;;;4.60;4.20;;;18.30;99.90;;;;;;5083945;28;20425;-86
2022/09/03 21:24:58;;;;;;;5.27;4.77;;;18.30;99.90;;;;;;5071849;28;20606;-84
2022/09/03 21:27:32;;;;;;;5.03;4.63;;;18.40;99.90;;;;;;5067239;28;20447;-85
2022/09/03 21:30:02;;;;;;;5.40;4.90;;;18.30;99.90;;;;;;5066516;28;20580;-87
2022/09/03 21:32:38;;;;;;;5.03;4.53;;;18.40;99.90;;;;;;5070650;28;20447;-84
2022/09/03 21:35:13;;;;;;;5.10;4.70;;;18.40;99.90;;;;;;5064950;28;20470;-87
2022/09/03 21:37:47;;;;;;;4.33;3.97;;;18.50;99.90;;;;;;5076230;28;20453;-86
2022/09/03 21:40:16;;;;;;;6.30;5.70;;;18.50;99.90;;;;;;5069290;28;20443;-86
2022/09/03 21:42:46;;;;;;;6.27;5.40;;;18.50;99.90;;;;;;5072286;28;20836;-85
2022/09/03 21:45:20;;;;;;;6.07;5.57;;;18.50;99.90;;;;;;5085822;28;20480;-86
2022/09/03 21:47:57;;;;;;;5.77;5.27;;;18.60;99.90;;;;;;5080965;28;20443;-86
2022/09/03 21:50:30;;;;;;;7.37;4.67;;;18.50;99.90;;;;;;5070952;28;20482;-86
2022/09/03 21:53:03;;;;;;;5.83;5.27;;;18.60;99.90;;;;;;5078125;28;20542;-87
2022/09/03 21:58:21;;;;;;;14.10;8.07;;;18.60;99.90;;;;;;5009533;28;20530;-85
2022/09/03 22:00:49;;;;;;;12.13;8.27;;;18.60;99.90;;;;;;5021651;28;20434;-84
2022/09/03 22:03:18;;;;;;;12.37;7.20;;;18.60;99.90;;;;;;5020592;28;20453;-85
2022/09/03 22:05:52;;;;;;;5.50;5.00;;;18.50;99.90;;;;;;5023458;28;20475;-84
2022/09/03 22:08:25;;;;;;;6.20;5.37;;;18.50;99.90;;;;;;5013627;28;20461;-84
2022/09/03 22:11:01;;;;;;;6.27;4.63;;;18.50;99.90;;;;;;5016816;28;20486;-85
2022/09/03 22:13:31;;;;;;;6.20;5.30;;;18.40;99.90;;;;;;5018319;28;20453;-85